メインページ
METAR-TAF:

METAR-TAF

空港 :

Dawson Creek, ブリティッシュコロンビア州, カナダ

緯度: 55-45N, 経度: 120-11W, 海抜: 655m

現時点の気象観測

当レポートは47分前の05:00(UTC)に作成
西の風 4kt
気温 2°C
湿度 75%
気圧 1018 hPa
視程: 14.5km
晴天

METAR: CYDQ 210500Z AUTO 27004KT 9SM CLR 02/M02 A3007 RMK SLP214

時間: 22:47 (05:47 UTC)

予報

当レポートは5時間9分前の00:38(UTC)に作成
予報は21日の 01時(UTC)から 21日の 05時(UTC)まで有効
変向風 3kt
視程: 10km
晴天

TAF: CYDQ 210038Z 2101/2105 VRB03KT P6SM SKC RMK FCST BASED ON AUTO OBS. NXT FCST WILL BE ISSUED AT 211245Z

4,000以上の空港の気象観測と天気予報(METAR報とTAF報)

利用可能な観測所は地図上に黄色い丸と赤い丸で示す。

丸の上にカーソルを重ねると観測所名を参照できる。

次にクリックすると気象観測と天気予報を参照できる。

マップの切り替え:黒色「×」印の緑ボタンをクリックして拡大、「-」印の緑ボタンをクリックして縮小、緑色の三角印をクリックして隣りの地図に切り替え


METAR-TAF: